createdAt,value
2022-12-14T00:02:24.687Z,1.85
2022-12-14T00:07:26.678Z,0.52
2022-12-14T00:12:28.822Z,0.22
2022-12-14T00:17:30.865Z,0.63
2022-12-14T00:22:32.826Z,0.10
2022-12-14T00:27:34.821Z,0.75
2022-12-14T00:32:37.062Z,0.65
2022-12-14T00:37:39.468Z,0.57
2022-12-14T00:42:41.602Z,0.22
2022-12-14T00:47:44.177Z,3.55
2022-12-14T00:52:46.420Z,0.77
2022-12-14T00:57:48.468Z,0.30
2022-12-14T01:02:50.500Z,1.88
2022-12-14T01:07:52.570Z,1.70
2022-12-14T01:12:55.023Z,1.08
2022-12-14T01:17:57.003Z,0.98
2022-12-14T01:22:59.163Z,0.63
2022-12-14T01:28:01.200Z,2.28
2022-12-14T01:33:28.640Z,1.25
2022-12-14T01:38:30.981Z,1.67
2022-12-14T01:43:53.467Z,2.13
2022-12-14T01:49:02.692Z,1.15
2022-12-14T01:54:08.162Z,2.30
2022-12-14T01:59:15.402Z,1.30
2022-12-14T02:04:18.262Z,1.73
2022-12-14T02:09:28.095Z,0.57
2022-12-14T02:14:30.509Z,1.58
2022-12-14T02:19:33.030Z,2.15
2022-12-14T02:25:00.308Z,2.65
2022-12-14T02:30:06.748Z,1.85
2022-12-14T02:35:20.969Z,0.38
2022-12-14T02:41:00.458Z,0.85
2022-12-14T02:46:16.408Z,3.47
2022-12-14T02:51:27.258Z,0.75
2022-12-14T02:56:50.962Z,0.52
2022-12-14T03:01:53.727Z,1.30
2022-12-14T03:07:00.532Z,1.00
2022-12-14T03:12:08.041Z,0.93
2022-12-14T03:17:30.441Z,0.82
2022-12-14T03:22:42.409Z,1.67
2022-12-14T03:27:52.348Z,1.13
2022-12-14T03:32:57.898Z,2.40
2022-12-14T03:38:07.618Z,2.60
2022-12-14T03:43:15.916Z,2.67
2022-12-14T03:48:35.643Z,2.47
2022-12-14T03:53:43.940Z,3.75
2022-12-14T03:59:03.171Z,4.40
2022-12-14T04:04:15.132Z,5.00
2022-12-14T04:09:30.572Z,5.00
2022-12-14T04:14:54.918Z,3.38
2022-12-14T04:20:04.225Z,1.13
2022-12-14T04:25:47.126Z,4.80
2022-12-14T04:38:12.461Z,5.60
2022-12-14T04:43:20.172Z,4.72
2022-12-14T04:48:32.136Z,1.77
2022-12-14T04:53:35.117Z,6.22
2022-12-14T04:58:37.482Z,7.95
2022-12-14T05:04:02.561Z,5.70
2022-12-14T05:09:13.416Z,4.80
2022-12-14T05:14:21.995Z,4.72
2022-12-14T05:19:26.807Z,3.80
2022-12-14T05:24:28.924Z,6.70
2022-12-14T05:29:30.946Z,6.13
2022-12-14T05:34:33.002Z,5.50
2022-12-14T05:39:34.985Z,2.97
2022-12-14T05:44:37.122Z,3.60
2022-12-14T05:49:39.168Z,2.05
2022-12-14T05:54:42.601Z,3.75
2022-12-14T05:59:44.643Z,3.80
2022-12-14T06:04:46.712Z,6.95
2022-12-14T06:09:48.705Z,6.90
2022-12-14T06:14:50.761Z,4.05
2022-12-14T06:19:52.896Z,9.73
2022-12-14T06:24:56.557Z,6.32
2022-12-14T06:30:00.110Z,4.63
2022-12-14T06:35:02.137Z,10.40
2022-12-14T06:40:04.612Z,6.55
2022-12-14T06:45:07.155Z,6.65
2022-12-14T06:50:10.291Z,4.82
2022-12-14T06:55:12.472Z,3.70
2022-12-14T07:00:14.664Z,3.83
2022-12-14T07:05:17.045Z,5.80
2022-12-14T07:10:18.963Z,4.18
2022-12-14T07:15:21.042Z,5.32
2022-12-14T07:20:23.042Z,5.95
2022-12-14T07:25:25.256Z,3.90
2022-12-14T07:30:27.582Z,5.30
2022-12-14T07:35:29.859Z,8.55
2022-12-14T07:40:34.432Z,6.20
2022-12-14T07:45:36.479Z,4.82
2022-12-14T07:50:38.489Z,5.68
2022-12-14T07:55:40.468Z,5.70
2022-12-14T08:00:42.522Z,9.70
2022-12-14T08:05:44.557Z,5.38
2022-12-14T08:10:48.753Z,4.78
2022-12-14T08:15:51.095Z,7.90
2022-12-14T08:20:53.607Z,8.05
2022-12-14T08:25:57.224Z,4.97
2022-12-14T08:31:07.968Z,14.43
2022-12-14T08:36:11.458Z,4.10
2022-12-14T08:41:14.679Z,5.03
2022-12-14T08:46:29.938Z,7.63
2022-12-14T08:51:32.094Z,9.23
2022-12-14T08:56:35.018Z,12.60
2022-12-14T09:01:37.205Z,8.00
2022-12-14T09:06:39.768Z,7.70
2022-12-14T09:11:41.830Z,6.20
2022-12-14T09:16:43.851Z,11.07
2022-12-14T09:21:45.909Z,7.45
2022-12-14T09:26:48.052Z,7.57
2022-12-14T09:31:50.143Z,10.85
2022-12-14T09:36:53.230Z,7.03
2022-12-14T09:42:14.558Z,8.73
2022-12-14T09:47:20.261Z,16.98
2022-12-14T09:52:40.247Z,9.60
2022-12-14T09:57:42.734Z,8.00
2022-12-14T10:03:22.949Z,8.05
2022-12-14T10:08:41.157Z,10.68
2022-12-14T10:14:13.665Z,5.68
2022-12-14T10:19:22.066Z,11.25
2022-12-14T10:24:27.827Z,9.10
2022-12-14T10:29:40.058Z,8.50
2022-12-14T10:34:43.735Z,4.57
2022-12-14T10:47:05.239Z,6.47
2022-12-14T10:52:28.756Z,5.70
2022-12-14T11:02:36.490Z,6.10
2022-12-14T11:07:40.605Z,12.90
2022-12-14T11:13:15.814Z,13.70
2022-12-14T11:18:17.915Z,13.63
2022-12-14T11:23:24.900Z,12.70
2022-12-14T11:29:00.713Z,8.35
2022-12-14T11:34:04.758Z,6.45
2022-12-14T11:39:15.677Z,6.88
2022-12-14T11:49:31.451Z,5.97
2022-12-14T11:54:35.088Z,6.18
2022-12-14T11:59:48.335Z,7.93
2022-12-14T12:05:12.300Z,11.48
2022-12-14T12:15:18.921Z,8.43
2022-12-14T12:20:26.491Z,4.38
2022-12-14T12:25:37.010Z,13.93
2022-12-14T12:30:43.141Z,7.47
2022-12-14T12:35:53.150Z,6.15
2022-12-14T12:41:01.286Z,11.60
2022-12-14T12:46:13.568Z,14.13
2022-12-14T12:51:28.154Z,7.82
2022-12-14T12:56:52.704Z,5.32
2022-12-14T13:01:59.008Z,6.70
2022-12-14T13:07:09.400Z,6.57
2022-12-14T13:12:36.135Z,7.60
2022-12-14T13:17:44.150Z,10.00
2022-12-14T13:22:49.561Z,6.05
2022-12-14T13:28:00.420Z,15.60
2022-12-14T13:33:20.388Z,7.88
2022-12-14T13:38:56.334Z,6.70
2022-12-14T13:43:58.363Z,6.10
2022-12-14T13:49:06.705Z,5.82
2022-12-14T13:54:22.168Z,6.60
2022-12-14T13:59:36.911Z,6.43
2022-12-14T14:04:39.182Z,7.15
2022-12-14T14:09:50.295Z,7.43
2022-12-14T14:15:26.213Z,6.75
2022-12-14T14:20:35.243Z,11.63
2022-12-14T14:25:39.343Z,10.68
2022-12-14T14:30:51.189Z,8.68
2022-12-14T14:35:53.281Z,6.88
2022-12-14T14:41:19.441Z,9.00
2022-12-14T14:46:36.965Z,8.48
2022-12-14T14:51:39.281Z,6.55
2022-12-14T14:56:41.529Z,8.90
2022-12-14T15:01:50.830Z,12.23
2022-12-14T15:06:59.325Z,9.75
2022-12-14T15:12:07.151Z,9.13
2022-12-14T15:17:19.329Z,8.05
2022-12-14T15:22:24.113Z,7.15
2022-12-14T15:27:30.642Z,10.35
2022-12-14T15:32:33.077Z,11.57
2022-12-14T15:37:56.338Z,8.10
2022-12-14T15:43:04.008Z,9.93
2022-12-14T15:48:35.550Z,7.90
2022-12-14T15:53:41.033Z,9.02
2022-12-14T15:58:45.263Z,13.38
2022-12-14T16:03:50.440Z,9.30
2022-12-14T16:09:00.705Z,7.85
2022-12-14T16:14:13.534Z,9.75
2022-12-14T16:19:57.357Z,9.77
2022-12-14T16:25:23.173Z,11.75
2022-12-14T16:30:33.178Z,12.13
2022-12-14T16:35:37.188Z,17.52
2022-12-14T16:40:42.353Z,13.00
2022-12-14T16:45:46.144Z,14.07
2022-12-14T16:51:44.809Z,9.10
2022-12-14T16:56:59.249Z,19.23
2022-12-14T17:02:01.429Z,10.63
2022-12-14T17:07:04.098Z,10.20
2022-12-14T17:12:15.355Z,11.45
2022-12-14T17:17:25.514Z,17.90
2022-12-14T17:22:31.125Z,117.20
2022-12-14T17:27:33.205Z,81.95
2022-12-14T17:32:35.453Z,28.45
2022-12-14T17:37:37.755Z,10.40
2022-12-14T17:42:41.734Z,19.45
2022-12-14T17:47:43.734Z,10.50
2022-12-14T17:52:46.228Z,6.57
2022-12-14T17:57:49.176Z,13.07
2022-12-14T18:02:51.903Z,5.78
2022-12-14T18:07:54.139Z,3.53
2022-12-14T18:12:56.684Z,3.03
2022-12-14T18:18:00.533Z,7.70
2022-12-14T18:23:03.030Z,4.47
2022-12-14T18:28:06.488Z,4.07
2022-12-14T18:33:21.278Z,19.95
2022-12-14T18:38:24.251Z,9.10
2022-12-14T18:43:28.609Z,9.63
2022-12-14T18:48:31.343Z,8.25
2022-12-14T18:53:34.419Z,6.53
2022-12-14T18:58:36.884Z,9.23
2022-12-14T19:03:40.323Z,11.32
2022-12-14T19:08:42.936Z,5.70
2022-12-14T19:13:46.957Z,6.20
2022-12-14T19:18:49.430Z,8.60
2022-12-14T19:23:51.905Z,5.78
2022-12-14T19:28:54.352Z,7.25
2022-12-14T19:33:56.930Z,12.88
2022-12-14T19:38:59.348Z,9.65
2022-12-14T19:44:01.558Z,11.48
2022-12-14T19:49:03.694Z,19.63
2022-12-14T19:54:06.944Z,10.07
2022-12-14T19:59:09.022Z,7.45
2022-12-14T20:04:11.359Z,9.32
2022-12-14T20:09:20.342Z,8.60
2022-12-14T20:14:23.050Z,10.10
2022-12-14T20:19:25.557Z,10.45
2022-12-14T20:24:27.850Z,9.13
2022-12-14T20:29:30.150Z,16.75
2022-12-14T20:34:34.896Z,10.48
2022-12-14T20:44:39.292Z,12.02
2022-12-14T20:49:42.096Z,11.57
2022-12-14T20:54:44.141Z,7.45
2022-12-14T20:59:46.470Z,9.65
2022-12-14T21:04:48.725Z,10.70
2022-12-14T21:09:51.159Z,12.77
2022-12-14T21:14:56.498Z,12.15
2022-12-14T21:19:58.696Z,12.02
2022-12-14T21:25:04.317Z,10.18
2022-12-14T21:30:09.206Z,12.40
2022-12-14T21:35:13.384Z,10.20
2022-12-14T21:40:35.593Z,7.50
2022-12-14T21:45:37.730Z,9.82
2022-12-14T21:50:42.613Z,18.73
2022-12-14T21:56:22.121Z,10.00
2022-12-14T22:01:24.316Z,8.52
2022-12-14T22:06:26.520Z,8.45
2022-12-14T22:11:30.586Z,7.60
2022-12-14T22:16:34.518Z,8.60
2022-12-14T22:21:39.573Z,8.38
2022-12-14T22:26:41.691Z,7.22
2022-12-14T22:31:43.752Z,6.72
2022-12-14T22:36:46.742Z,6.38
2022-12-14T22:41:49.819Z,10.90
2022-12-14T22:46:52.043Z,12.60
2022-12-14T22:52:59.998Z,7.57
2022-12-14T22:58:02.189Z,6.95
2022-12-14T23:03:04.893Z,4.90
2022-12-14T23:08:07.046Z,4.95
2022-12-14T23:13:27.993Z,3.40
2022-12-14T23:18:48.829Z,4.05
2022-12-14T23:24:09.367Z,4.25
2022-12-14T23:29:29.959Z,4.28
2022-12-14T23:34:50.859Z,6.45
2022-12-14T23:40:12.232Z,2.97
2022-12-14T23:45:33.050Z,4.50
2022-12-14T23:50:53.906Z,1.42
2022-12-14T23:56:14.511Z,2.03
